sensor_id;sensor_type;location;lat;lon;timestamp;P1;durP1;ratioP1;P2;durP2;ratioP2
19889;SDS011;10107;51.198;6.824;2023-10-08T00:03:09;5.38;;;3.60;;
19889;SDS011;10107;51.198;6.824;2023-10-08T00:07:11;5.68;;;3.65;;
19889;SDS011;10107;51.198;6.824;2023-10-08T00:11:13;4.35;;;3.20;;
19889;SDS011;10107;51.198;6.824;2023-10-08T00:15:17;6.00;;;3.35;;
19889;SDS011;10107;51.198;6.824;2023-10-08T00:19:19;4.85;;;3.38;;
19889;SDS011;10107;51.198;6.824;2023-10-08T00:23:21;4.80;;;3.38;;
19889;SDS011;10107;51.198;6.824;2023-10-08T00:27:26;4.75;;;3.38;;
19889;SDS011;10107;51.198;6.824;2023-10-08T00:31:29;5.35;;;3.47;;
19889;SDS011;10107;51.198;6.824;2023-10-08T00:35:32;5.07;;;3.55;;
19889;SDS011;10107;51.198;6.824;2023-10-08T00:39:38;6.05;;;3.97;;
19889;SDS011;10107;51.198;6.824;2023-10-08T00:43:40;5.90;;;3.58;;
19889;SDS011;10107;51.198;6.824;2023-10-08T00:47:46;8.27;;;4.28;;
19889;SDS011;10107;51.198;6.824;2023-10-08T00:51:48;5.80;;;3.42;;
19889;SDS011;10107;51.198;6.824;2023-10-08T00:56:01;5.13;;;3.72;;
19889;SDS011;10107;51.198;6.824;2023-10-08T01:00:07;7.55;;;3.92;;
19889;SDS011;10107;51.198;6.824;2023-10-08T01:04:20;5.40;;;3.53;;
19889;SDS011;10107;51.198;6.824;2023-10-08T01:08:26;5.82;;;3.80;;
19889;SDS011;10107;51.198;6.824;2023-10-08T01:12:36;4.85;;;3.17;;
19889;SDS011;10107;51.198;6.824;2023-10-08T01:16:44;8.48;;;4.05;;
19889;SDS011;10107;51.198;6.824;2023-10-08T01:20:48;7.25;;;3.80;;
19889;SDS011;10107;51.198;6.824;2023-10-08T01:24:54;7.40;;;3.60;;
19889;SDS011;10107;51.198;6.824;2023-10-08T01:28:56;6.75;;;3.47;;
19889;SDS011;10107;51.198;6.824;2023-10-08T01:33:02;6.18;;;3.95;;
19889;SDS011;10107;51.198;6.824;2023-10-08T01:37:04;6.57;;;3.60;;
19889;SDS011;10107;51.198;6.824;2023-10-08T01:41:10;5.38;;;3.35;;
19889;SDS011;10107;51.198;6.824;2023-10-08T01:45:19;7.47;;;4.20;;
19889;SDS011;10107;51.198;6.824;2023-10-08T01:49:24;5.47;;;3.90;;
19889;SDS011;10107;51.198;6.824;2023-10-08T01:53:32;7.32;;;3.97;;
19889;SDS011;10107;51.198;6.824;2023-10-08T01:57:35;5.05;;;3.35;;
19889;SDS011;10107;51.198;6.824;2023-10-08T02:01:37;7.47;;;3.70;;
19889;SDS011;10107;51.198;6.824;2023-10-08T02:05:39;6.07;;;3.50;;
19889;SDS011;10107;51.198;6.824;2023-10-08T02:09:42;4.53;;;3.22;;
19889;SDS011;10107;51.198;6.824;2023-10-08T02:13:45;4.55;;;2.95;;
19889;SDS011;10107;51.198;6.824;2023-10-08T02:21:49;7.63;;;3.80;;
19889;SDS011;10107;51.198;6.824;2023-10-08T02:25:51;6.25;;;3.95;;
19889;SDS011;10107;51.198;6.824;2023-10-08T02:29:56;5.00;;;3.22;;
19889;SDS011;10107;51.198;6.824;2023-10-08T02:33:57;5.97;;;3.70;;
19889;SDS011;10107;51.198;6.824;2023-10-08T02:38:00;5.40;;;3.38;;
19889;SDS011;10107;51.198;6.824;2023-10-08T02:42:01;5.75;;;3.60;;
19889;SDS011;10107;51.198;6.824;2023-10-08T02:46:04;5.35;;;3.63;;
19889;SDS011;10107;51.198;6.824;2023-10-08T02:50:07;4.78;;;3.22;;
19889;SDS011;10107;51.198;6.824;2023-10-08T02:54:09;5.15;;;3.42;;
19889;SDS011;10107;51.198;6.824;2023-10-08T02:58:16;6.03;;;3.75;;
19889;SDS011;10107;51.198;6.824;2023-10-08T03:02:20;5.95;;;3.78;;
19889;SDS011;10107;51.198;6.824;2023-10-08T03:06:22;3.42;;;2.45;;
19889;SDS011;10107;51.198;6.824;2023-10-08T03:10:24;5.65;;;3.42;;
19889;SDS011;10107;51.198;6.824;2023-10-08T03:14:32;7.68;;;3.70;;
19889;SDS011;10107;51.198;6.824;2023-10-08T03:18:45;5.47;;;3.53;;
19889;SDS011;10107;51.198;6.824;2023-10-08T03:22:50;6.50;;;3.78;;
19889;SDS011;10107;51.198;6.824;2023-10-08T03:26:51;6.10;;;3.22;;
19889;SDS011;10107;51.198;6.824;2023-10-08T03:30:55;4.75;;;3.50;;
19889;SDS011;10107;51.198;6.824;2023-10-08T03:35:06;5.22;;;3.40;;
19889;SDS011;10107;51.198;6.824;2023-10-08T03:39:10;4.72;;;3.60;;
19889;SDS011;10107;51.198;6.824;2023-10-08T03:43:13;3.75;;;2.35;;
19889;SDS011;10107;51.198;6.824;2023-10-08T03:47:23;6.00;;;3.30;;
19889;SDS011;10107;51.198;6.824;2023-10-08T03:51:28;5.72;;;3.40;;
19889;SDS011;10107;51.198;6.824;2023-10-08T03:55:30;5.82;;;3.70;;
19889;SDS011;10107;51.198;6.824;2023-10-08T03:59:35;5.25;;;3.30;;
19889;SDS011;10107;51.198;6.824;2023-10-08T04:03:40;5.65;;;3.40;;
19889;SDS011;10107;51.198;6.824;2023-10-08T04:07:59;4.30;;;3.50;;
19889;SDS011;10107;51.198;6.824;2023-10-08T04:12:17;5.75;;;3.30;;
19889;SDS011;10107;51.198;6.824;2023-10-08T04:16:18;7.65;;;3.13;;
19889;SDS011;10107;51.198;6.824;2023-10-08T04:20:20;6.78;;;3.45;;
19889;SDS011;10107;51.198;6.824;2023-10-08T04:24:40;6.22;;;3.60;;
19889;SDS011;10107;51.198;6.824;2023-10-08T04:28:44;4.85;;;3.13;;
19889;SDS011;10107;51.198;6.824;2023-10-08T04:32:48;6.40;;;3.83;;
19889;SDS011;10107;51.198;6.824;2023-10-08T04:36:52;5.57;;;3.40;;
19889;SDS011;10107;51.198;6.824;2023-10-08T04:40:56;7.25;;;3.70;;
19889;SDS011;10107;51.198;6.824;2023-10-08T04:45:02;4.75;;;3.13;;
19889;SDS011;10107;51.198;6.824;2023-10-08T04:49:04;6.00;;;3.55;;
19889;SDS011;10107;51.198;6.824;2023-10-08T04:53:09;6.00;;;3.47;;
19889;SDS011;10107;51.198;6.824;2023-10-08T04:57:12;5.95;;;3.22;;
19889;SDS011;10107;51.198;6.824;2023-10-08T05:01:17;5.50;;;3.13;;
19889;SDS011;10107;51.198;6.824;2023-10-08T05:05:20;6.07;;;3.50;;
19889;SDS011;10107;51.198;6.824;2023-10-08T05:09:38;4.55;;;3.22;;
19889;SDS011;10107;51.198;6.824;2023-10-08T05:13:49;5.80;;;3.40;;
19889;SDS011;10107;51.198;6.824;2023-10-08T05:18:05;5.65;;;3.95;;
19889;SDS011;10107;51.198;6.824;2023-10-08T05:22:19;5.88;;;3.35;;
19889;SDS011;10107;51.198;6.824;2023-10-08T05:26:43;6.63;;;3.90;;
19889;SDS011;10107;51.198;6.824;2023-10-08T05:30:51;6.20;;;3.50;;
19889;SDS011;10107;51.198;6.824;2023-10-08T05:34:55;5.10;;;3.40;;
19889;SDS011;10107;51.198;6.824;2023-10-08T05:39:17;5.70;;;3.20;;
19889;SDS011;10107;51.198;6.824;2023-10-08T05:43:30;4.78;;;3.22;;
19889;SDS011;10107;51.198;6.824;2023-10-08T05:47:57;7.60;;;4.05;;
19889;SDS011;10107;51.198;6.824;2023-10-08T05:52:15;6.32;;;3.72;;
19889;SDS011;10107;51.198;6.824;2023-10-08T05:56:26;4.53;;;3.05;;
19889;SDS011;10107;51.198;6.824;2023-10-08T06:00:42;8.25;;;3.78;;
19889;SDS011;10107;51.198;6.824;2023-10-08T06:05:07;7.55;;;3.92;;
19889;SDS011;10107;51.198;6.824;2023-10-08T06:09:20;6.88;;;3.92;;
19889;SDS011;10107;51.198;6.824;2023-10-08T06:13:22;6.82;;;4.10;;
19889;SDS011;10107;51.198;6.824;2023-10-08T06:17:45;6.22;;;3.90;;
19889;SDS011;10107;51.198;6.824;2023-10-08T06:22:05;5.07;;;3.28;;
19889;SDS011;10107;51.198;6.824;2023-10-08T06:26:07;7.43;;;3.80;;
19889;SDS011;10107;51.198;6.824;2023-10-08T06:30:15;5.82;;;3.67;;
19889;SDS011;10107;51.198;6.824;2023-10-08T06:34:17;5.78;;;3.75;;
19889;SDS011;10107;51.198;6.824;2023-10-08T06:42:24;8.23;;;3.78;;
19889;SDS011;10107;51.198;6.824;2023-10-08T06:46:27;3.67;;;2.25;;
19889;SDS011;10107;51.198;6.824;2023-10-08T06:50:32;6.97;;;3.30;;
19889;SDS011;10107;51.198;6.824;2023-10-08T06:54:37;5.22;;;3.25;;
19889;SDS011;10107;51.198;6.824;2023-10-08T06:58:39;5.80;;;3.27;;
19889;SDS011;10107;51.198;6.824;2023-10-08T07:02:46;6.72;;;3.85;;
19889;SDS011;10107;51.198;6.824;2023-10-08T07:06:47;6.00;;;3.30;;
19889;SDS011;10107;51.198;6.824;2023-10-08T07:10:52;6.23;;;3.43;;
19889;SDS011;10107;51.198;6.824;2023-10-08T07:14:57;5.57;;;3.20;;
19889;SDS011;10107;51.198;6.824;2023-10-08T07:18:59;5.82;;;3.42;;
19889;SDS011;10107;51.198;6.824;2023-10-08T07:23:05;6.45;;;3.28;;
19889;SDS011;10107;51.198;6.824;2023-10-08T07:27:20;3.80;;;2.20;;
19889;SDS011;10107;51.198;6.824;2023-10-08T07:31:24;6.43;;;3.40;;
19889;SDS011;10107;51.198;6.824;2023-10-08T07:35:29;6.93;;;3.65;;
19889;SDS011;10107;51.198;6.824;2023-10-08T07:39:31;6.20;;;3.30;;
19889;SDS011;10107;51.198;6.824;2023-10-08T07:43:37;6.90;;;3.42;;
19889;SDS011;10107;51.198;6.824;2023-10-08T07:47:38;6.33;;;3.57;;
19889;SDS011;10107;51.198;6.824;2023-10-08T07:51:40;7.13;;;3.70;;
19889;SDS011;10107;51.198;6.824;2023-10-08T07:55:42;6.88;;;3.65;;
19889;SDS011;10107;51.198;6.824;2023-10-08T07:59:45;6.15;;;3.45;;
19889;SDS011;10107;51.198;6.824;2023-10-08T08:03:47;5.55;;;3.35;;
19889;SDS011;10107;51.198;6.824;2023-10-08T08:07:50;6.47;;;3.30;;
19889;SDS011;10107;51.198;6.824;2023-10-08T08:11:52;8.10;;;3.72;;
19889;SDS011;10107;51.198;6.824;2023-10-08T08:15:58;7.82;;;4.38;;
19889;SDS011;10107;51.198;6.824;2023-10-08T08:20:09;7.82;;;4.20;;
19889;SDS011;10107;51.198;6.824;2023-10-08T08:24:18;7.68;;;3.70;;
19889;SDS011;10107;51.198;6.824;2023-10-08T08:28:28;6.55;;;3.63;;
19889;SDS011;10107;51.198;6.824;2023-10-08T08:32:31;6.15;;;3.88;;
19889;SDS011;10107;51.198;6.824;2023-10-08T08:36:33;10.50;;;4.43;;
19889;SDS011;10107;51.198;6.824;2023-10-08T08:40:38;7.63;;;4.47;;
19889;SDS011;10107;51.198;6.824;2023-10-08T08:44:41;7.20;;;3.90;;
19889;SDS011;10107;51.198;6.824;2023-10-08T08:48:47;7.13;;;4.05;;
19889;SDS011;10107;51.198;6.824;2023-10-08T08:52:50;7.43;;;4.40;;
19889;SDS011;10107;51.198;6.824;2023-10-08T08:56:51;7.80;;;4.00;;
19889;SDS011;10107;51.198;6.824;2023-10-08T09:00:56;15.73;;;5.85;;
19889;SDS011;10107;51.198;6.824;2023-10-08T09:04:59;7.78;;;4.32;;
19889;SDS011;10107;51.198;6.824;2023-10-08T09:09:13;9.77;;;4.93;;
19889;SDS011;10107;51.198;6.824;2023-10-08T09:13:22;7.75;;;4.53;;
19889;SDS011;10107;51.198;6.824;2023-10-08T09:17:25;7.68;;;4.40;;
19889;SDS011;10107;51.198;6.824;2023-10-08T09:21:29;11.80;;;5.18;;
19889;SDS011;10107;51.198;6.824;2023-10-08T09:25:30;9.38;;;4.53;;
19889;SDS011;10107;51.198;6.824;2023-10-08T09:29:34;8.95;;;4.65;;
19889;SDS011;10107;51.198;6.824;2023-10-08T09:33:40;10.65;;;5.28;;
19889;SDS011;10107;51.198;6.824;2023-10-08T09:37:43;11.70;;;6.25;;
19889;SDS011;10107;51.198;6.824;2023-10-08T09:41:45;11.52;;;6.32;;
19889;SDS011;10107;51.198;6.824;2023-10-08T09:45:51;12.00;;;5.53;;
19889;SDS011;10107;51.198;6.824;2023-10-08T09:50:09;14.63;;;6.45;;
19889;SDS011;10107;51.198;6.824;2023-10-08T09:54:17;19.23;;;7.72;;
19889;SDS011;10107;51.198;6.824;2023-10-08T09:58:23;20.40;;;7.90;;
19889;SDS011;10107;51.198;6.824;2023-10-08T10:02:26;13.50;;;6.40;;
19889;SDS011;10107;51.198;6.824;2023-10-08T10:06:28;14.55;;;7.20;;
19889;SDS011;10107;51.198;6.824;2023-10-08T10:10:32;15.82;;;6.82;;
19889;SDS011;10107;51.198;6.824;2023-10-08T10:14:41;17.95;;;7.50;;
19889;SDS011;10107;51.198;6.824;2023-10-08T10:18:44;12.13;;;6.50;;
19889;SDS011;10107;51.198;6.824;2023-10-08T10:22:47;12.90;;;5.63;;
19889;SDS011;10107;51.198;6.824;2023-10-08T10:26:50;15.40;;;6.68;;
19889;SDS011;10107;51.198;6.824;2023-10-08T10:30:54;18.75;;;7.53;;
19889;SDS011;10107;51.198;6.824;2023-10-08T10:34:55;16.63;;;6.90;;
19889;SDS011;10107;51.198;6.824;2023-10-08T10:38:57;15.88;;;6.75;;
19889;SDS011;10107;51.198;6.824;2023-10-08T10:43:00;16.38;;;7.85;;
19889;SDS011;10107;51.198;6.824;2023-10-08T10:47:02;14.65;;;7.40;;
19889;SDS011;10107;51.198;6.824;2023-10-08T10:51:21;14.38;;;6.70;;
19889;SDS011;10107;51.198;6.824;2023-10-08T10:55:23;13.55;;;7.15;;
19889;SDS011;10107;51.198;6.824;2023-10-08T10:59:34;14.95;;;6.82;;
19889;SDS011;10107;51.198;6.824;2023-10-08T11:03:38;14.13;;;7.25;;
19889;SDS011;10107;51.198;6.824;2023-10-08T11:07:39;18.00;;;7.70;;
19889;SDS011;10107;51.198;6.824;2023-10-08T11:11:44;18.92;;;9.02;;
19889;SDS011;10107;51.198;6.824;2023-10-08T11:15:49;16.55;;;7.97;;
19889;SDS011;10107;51.198;6.824;2023-10-08T11:19:52;16.10;;;8.23;;
19889;SDS011;10107;51.198;6.824;2023-10-08T11:23:54;21.05;;;9.25;;
19889;SDS011;10107;51.198;6.824;2023-10-08T11:27:59;18.35;;;8.73;;
19889;SDS011;10107;51.198;6.824;2023-10-08T11:32:03;16.27;;;8.48;;
19889;SDS011;10107;51.198;6.824;2023-10-08T11:36:08;16.92;;;8.80;;
19889;SDS011;10107;51.198;6.824;2023-10-08T11:40:21;17.45;;;7.80;;
19889;SDS011;10107;51.198;6.824;2023-10-08T11:44:29;20.77;;;9.30;;
19889;SDS011;10107;51.198;6.824;2023-10-08T11:48:32;16.80;;;8.32;;
19889;SDS011;10107;51.198;6.824;2023-10-08T11:52:38;23.63;;;10.30;;
19889;SDS011;10107;51.198;6.824;2023-10-08T11:56:42;21.05;;;9.10;;
19889;SDS011;10107;51.198;6.824;2023-10-08T12:00:44;18.60;;;9.38;;
19889;SDS011;10107;51.198;6.824;2023-10-08T12:04:47;19.30;;;8.60;;
19889;SDS011;10107;51.198;6.824;2023-10-08T12:08:49;25.23;;;11.00;;
19889;SDS011;10107;51.198;6.824;2023-10-08T12:12:54;19.80;;;9.20;;
19889;SDS011;10107;51.198;6.824;2023-10-08T12:16:55;19.45;;;9.75;;
19889;SDS011;10107;51.198;6.824;2023-10-08T12:21:01;21.63;;;9.77;;
19889;SDS011;10107;51.198;6.824;2023-10-08T12:25:03;18.13;;;9.57;;
19889;SDS011;10107;51.198;6.824;2023-10-08T12:29:07;16.52;;;8.10;;
19889;SDS011;10107;51.198;6.824;2023-10-08T12:33:10;16.93;;;8.97;;
19889;SDS011;10107;51.198;6.824;2023-10-08T12:37:14;20.03;;;10.57;;
19889;SDS011;10107;51.198;6.824;2023-10-08T12:41:15;17.20;;;9.32;;
19889;SDS011;10107;51.198;6.824;2023-10-08T12:45:19;27.42;;;14.13;;
19889;SDS011;10107;51.198;6.824;2023-10-08T12:49:21;24.90;;;13.10;;
19889;SDS011;10107;51.198;6.824;2023-10-08T12:53:25;20.55;;;11.13;;
19889;SDS011;10107;51.198;6.824;2023-10-08T12:57:34;17.60;;;9.02;;
19889;SDS011;10107;51.198;6.824;2023-10-08T13:01:37;18.70;;;9.48;;
19889;SDS011;10107;51.198;6.824;2023-10-08T13:09:45;14.25;;;7.45;;
19889;SDS011;10107;51.198;6.824;2023-10-08T13:13:48;16.10;;;7.80;;
19889;SDS011;10107;51.198;6.824;2023-10-08T13:17:50;16.65;;;7.53;;
19889;SDS011;10107;51.198;6.824;2023-10-08T13:21:52;16.00;;;7.70;;
19889;SDS011;10107;51.198;6.824;2023-10-08T13:25:55;15.85;;;7.80;;
19889;SDS011;10107;51.198;6.824;2023-10-08T13:30:05;15.68;;;8.27;;
19889;SDS011;10107;51.198;6.824;2023-10-08T13:34:09;15.95;;;8.68;;
19889;SDS011;10107;51.198;6.824;2023-10-08T13:42:17;14.70;;;7.55;;
19889;SDS011;10107;51.198;6.824;2023-10-08T13:46:20;12.55;;;7.72;;
19889;SDS011;10107;51.198;6.824;2023-10-08T13:50:23;15.90;;;8.05;;
19889;SDS011;10107;51.198;6.824;2023-10-08T13:54:25;13.82;;;7.35;;
19889;SDS011;10107;51.198;6.824;2023-10-08T13:58:30;15.95;;;7.85;;
19889;SDS011;10107;51.198;6.824;2023-10-08T14:02:35;19.92;;;9.10;;
19889;SDS011;10107;51.198;6.824;2023-10-08T14:06:39;15.55;;;8.57;;
19889;SDS011;10107;51.198;6.824;2023-10-08T14:10:48;16.50;;;7.97;;
19889;SDS011;10107;51.198;6.824;2023-10-08T14:14:51;14.55;;;8.05;;
19889;SDS011;10107;51.198;6.824;2023-10-08T14:18:52;8.85;;;5.10;;
19889;SDS011;10107;51.198;6.824;2023-10-08T14:22:55;10.98;;;6.45;;
19889;SDS011;10107;51.198;6.824;2023-10-08T14:27:02;16.92;;;8.10;;
19889;SDS011;10107;51.198;6.824;2023-10-08T14:31:11;18.13;;;8.43;;
19889;SDS011;10107;51.198;6.824;2023-10-08T14:35:15;14.95;;;8.07;;
19889;SDS011;10107;51.198;6.824;2023-10-08T14:39:34;16.45;;;8.20;;
19889;SDS011;10107;51.198;6.824;2023-10-08T14:43:54;16.15;;;8.50;;
19889;SDS011;10107;51.198;6.824;2023-10-08T14:47:57;17.00;;;8.32;;
19889;SDS011;10107;51.198;6.824;2023-10-08T14:51:59;14.45;;;6.85;;
19889;SDS011;10107;51.198;6.824;2023-10-08T14:56:04;12.55;;;7.10;;
19889;SDS011;10107;51.198;6.824;2023-10-08T15:00:07;12.30;;;6.43;;
19889;SDS011;10107;51.198;6.824;2023-10-08T15:04:11;11.93;;;6.75;;
19889;SDS011;10107;51.198;6.824;2023-10-08T15:08:13;12.82;;;7.10;;
19889;SDS011;10107;51.198;6.824;2023-10-08T15:12:15;13.70;;;7.60;;
19889;SDS011;10107;51.198;6.824;2023-10-08T15:16:18;14.20;;;7.63;;
19889;SDS011;10107;51.198;6.824;2023-10-08T15:20:24;11.50;;;7.10;;
19889;SDS011;10107;51.198;6.824;2023-10-08T15:24:25;11.10;;;6.47;;
19889;SDS011;10107;51.198;6.824;2023-10-08T15:28:27;15.15;;;6.90;;
19889;SDS011;10107;51.198;6.824;2023-10-08T15:32:28;13.57;;;8.05;;
19889;SDS011;10107;51.198;6.824;2023-10-08T15:36:33;13.18;;;6.90;;
19889;SDS011;10107;51.198;6.824;2023-10-08T15:40:35;13.90;;;8.30;;
19889;SDS011;10107;51.198;6.824;2023-10-08T15:44:36;13.38;;;7.25;;
19889;SDS011;10107;51.198;6.824;2023-10-08T15:48:38;13.35;;;7.55;;
19889;SDS011;10107;51.198;6.824;2023-10-08T15:52:41;13.57;;;7.20;;
19889;SDS011;10107;51.198;6.824;2023-10-08T15:56:43;13.75;;;7.63;;
19889;SDS011;10107;51.198;6.824;2023-10-08T16:00:45;10.50;;;6.47;;
19889;SDS011;10107;51.198;6.824;2023-10-08T16:04:46;12.10;;;6.72;;
19889;SDS011;10107;51.198;6.824;2023-10-08T16:08:49;10.02;;;6.88;;
19889;SDS011;10107;51.198;6.824;2023-10-08T16:12:51;11.20;;;6.80;;
19889;SDS011;10107;51.198;6.824;2023-10-08T16:16:53;12.68;;;6.95;;
19889;SDS011;10107;51.198;6.824;2023-10-08T16:20:54;12.10;;;7.30;;
19889;SDS011;10107;51.198;6.824;2023-10-08T16:24:58;12.32;;;6.72;;
19889;SDS011;10107;51.198;6.824;2023-10-08T16:29:01;10.25;;;6.85;;
19889;SDS011;10107;51.198;6.824;2023-10-08T16:33:03;12.98;;;7.25;;
19889;SDS011;10107;51.198;6.824;2023-10-08T16:37:05;13.27;;;7.97;;
19889;SDS011;10107;51.198;6.824;2023-10-08T16:41:08;15.52;;;8.10;;
19889;SDS011;10107;51.198;6.824;2023-10-08T16:45:12;11.55;;;7.68;;
19889;SDS011;10107;51.198;6.824;2023-10-08T16:49:16;14.20;;;8.10;;
19889;SDS011;10107;51.198;6.824;2023-10-08T16:53:18;17.05;;;9.40;;
19889;SDS011;10107;51.198;6.824;2023-10-08T16:57:21;17.02;;;10.35;;
19889;SDS011;10107;51.198;6.824;2023-10-08T17:01:23;16.10;;;9.82;;
19889;SDS011;10107;51.198;6.824;2023-10-08T17:05:25;15.10;;;10.07;;
19889;SDS011;10107;51.198;6.824;2023-10-08T17:09:27;14.90;;;9.82;;
19889;SDS011;10107;51.198;6.824;2023-10-08T17:13:30;15.82;;;8.93;;
19889;SDS011;10107;51.198;6.824;2023-10-08T17:17:31;15.80;;;9.67;;
19889;SDS011;10107;51.198;6.824;2023-10-08T17:21:34;9.67;;;6.90;;
19889;SDS011;10107;51.198;6.824;2023-10-08T17:25:36;13.88;;;9.10;;
19889;SDS011;10107;51.198;6.824;2023-10-08T17:29:40;14.55;;;9.82;;
19889;SDS011;10107;51.198;6.824;2023-10-08T17:33:42;17.63;;;10.43;;
19889;SDS011;10107;51.198;6.824;2023-10-08T17:37:44;15.35;;;10.20;;
19889;SDS011;10107;51.198;6.824;2023-10-08T17:41:47;18.05;;;10.27;;
19889;SDS011;10107;51.198;6.824;2023-10-08T17:45:51;15.73;;;9.65;;
19889;SDS011;10107;51.198;6.824;2023-10-08T17:49:55;16.35;;;10.52;;
19889;SDS011;10107;51.198;6.824;2023-10-08T17:53:57;17.17;;;10.13;;
19889;SDS011;10107;51.198;6.824;2023-10-08T17:58:01;17.05;;;10.68;;
19889;SDS011;10107;51.198;6.824;2023-10-08T18:02:05;16.15;;;10.60;;
19889;SDS011;10107;51.198;6.824;2023-10-08T18:06:07;14.23;;;10.25;;
19889;SDS011;10107;51.198;6.824;2023-10-08T18:10:09;16.33;;;10.68;;
19889;SDS011;10107;51.198;6.824;2023-10-08T18:14:13;17.63;;;10.75;;
19889;SDS011;10107;51.198;6.824;2023-10-08T18:22:23;18.35;;;11.13;;
19889;SDS011;10107;51.198;6.824;2023-10-08T18:26:26;19.40;;;11.63;;
19889;SDS011;10107;51.198;6.824;2023-10-08T18:30:28;17.58;;;11.32;;
19889;SDS011;10107;51.198;6.824;2023-10-08T18:34:33;16.77;;;11.27;;
19889;SDS011;10107;51.198;6.824;2023-10-08T18:38:35;19.73;;;12.57;;
19889;SDS011;10107;51.198;6.824;2023-10-08T18:42:37;20.50;;;13.48;;
19889;SDS011;10107;51.198;6.824;2023-10-08T18:46:39;17.95;;;12.25;;
19889;SDS011;10107;51.198;6.824;2023-10-08T18:50:42;19.50;;;12.80;;
19889;SDS011;10107;51.198;6.824;2023-10-08T18:54:45;19.50;;;13.18;;
19889;SDS011;10107;51.198;6.824;2023-10-08T18:58:49;20.33;;;12.35;;
19889;SDS011;10107;51.198;6.824;2023-10-08T19:02:52;23.90;;;14.45;;
19889;SDS011;10107;51.198;6.824;2023-10-08T19:06:56;20.67;;;13.90;;
19889;SDS011;10107;51.198;6.824;2023-10-08T19:10:58;21.20;;;14.97;;
19889;SDS011;10107;51.198;6.824;2023-10-08T19:15:00;24.13;;;16.02;;
19889;SDS011;10107;51.198;6.824;2023-10-08T19:19:01;23.85;;;15.68;;
19889;SDS011;10107;51.198;6.824;2023-10-08T19:23:06;18.73;;;10.53;;
19889;SDS011;10107;51.198;6.824;2023-10-08T19:27:08;21.42;;;13.93;;
19889;SDS011;10107;51.198;6.824;2023-10-08T19:31:11;16.13;;;9.63;;
19889;SDS011;10107;51.198;6.824;2023-10-08T19:35:15;21.27;;;12.80;;
19889;SDS011;10107;51.198;6.824;2023-10-08T19:39:18;19.50;;;12.45;;
19889;SDS011;10107;51.198;6.824;2023-10-08T19:43:20;20.93;;;12.57;;
19889;SDS011;10107;51.198;6.824;2023-10-08T19:47:22;20.38;;;12.82;;
19889;SDS011;10107;51.198;6.824;2023-10-08T19:51:25;20.13;;;12.73;;
19889;SDS011;10107;51.198;6.824;2023-10-08T19:55:28;22.73;;;13.10;;
19889;SDS011;10107;51.198;6.824;2023-10-08T19:59:30;21.83;;;13.35;;
19889;SDS011;10107;51.198;6.824;2023-10-08T20:03:32;19.63;;;12.05;;
19889;SDS011;10107;51.198;6.824;2023-10-08T20:07:33;19.30;;;12.45;;
19889;SDS011;10107;51.198;6.824;2023-10-08T20:11:37;18.05;;;12.60;;
19889;SDS011;10107;51.198;6.824;2023-10-08T20:15:39;18.90;;;11.40;;
19889;SDS011;10107;51.198;6.824;2023-10-08T20:19:42;21.73;;;12.40;;
19889;SDS011;10107;51.198;6.824;2023-10-08T20:23:44;17.60;;;11.75;;
19889;SDS011;10107;51.198;6.824;2023-10-08T20:27:47;17.23;;;11.70;;
19889;SDS011;10107;51.198;6.824;2023-10-08T20:31:50;19.80;;;11.65;;
19889;SDS011;10107;51.198;6.824;2023-10-08T20:35:52;18.98;;;11.25;;
19889;SDS011;10107;51.198;6.824;2023-10-08T20:39:53;23.23;;;13.02;;
19889;SDS011;10107;51.198;6.824;2023-10-08T20:43:58;18.88;;;12.52;;
19889;SDS011;10107;51.198;6.824;2023-10-08T20:48:01;20.27;;;13.25;;
19889;SDS011;10107;51.198;6.824;2023-10-08T20:52:03;20.65;;;13.02;;
19889;SDS011;10107;51.198;6.824;2023-10-08T20:56:04;21.75;;;14.45;;
19889;SDS011;10107;51.198;6.824;2023-10-08T21:00:08;22.23;;;14.25;;
19889;SDS011;10107;51.198;6.824;2023-10-08T21:08:12;19.67;;;12.85;;
19889;SDS011;10107;51.198;6.824;2023-10-08T21:12:15;22.40;;;14.40;;
19889;SDS011;10107;51.198;6.824;2023-10-08T21:16:18;19.77;;;13.52;;
19889;SDS011;10107;51.198;6.824;2023-10-08T21:20:20;21.97;;;14.23;;
19889;SDS011;10107;51.198;6.824;2023-10-08T21:24:23;15.77;;;9.48;;
19889;SDS011;10107;51.198;6.824;2023-10-08T21:28:24;24.70;;;14.38;;
19889;SDS011;10107;51.198;6.824;2023-10-08T21:32:27;20.05;;;13.65;;
19889;SDS011;10107;51.198;6.824;2023-10-08T21:36:29;21.80;;;14.07;;
19889;SDS011;10107;51.198;6.824;2023-10-08T21:40:30;23.38;;;13.90;;
19889;SDS011;10107;51.198;6.824;2023-10-08T21:44:32;22.23;;;14.45;;
19889;SDS011;10107;51.198;6.824;2023-10-08T21:48:35;22.25;;;14.88;;
19889;SDS011;10107;51.198;6.824;2023-10-08T21:52:37;24.50;;;14.77;;
19889;SDS011;10107;51.198;6.824;2023-10-08T21:56:39;22.38;;;14.07;;
19889;SDS011;10107;51.198;6.824;2023-10-08T22:00:41;22.33;;;14.00;;
19889;SDS011;10107;51.198;6.824;2023-10-08T22:05:00;22.92;;;13.88;;
19889;SDS011;10107;51.198;6.824;2023-10-08T22:09:03;22.10;;;13.93;;
19889;SDS011;10107;51.198;6.824;2023-10-08T22:13:11;23.45;;;13.60;;
19889;SDS011;10107;51.198;6.824;2023-10-08T22:21:18;23.13;;;13.13;;
19889;SDS011;10107;51.198;6.824;2023-10-08T22:25:22;20.40;;;13.63;;
19889;SDS011;10107;51.198;6.824;2023-10-08T22:29:24;19.55;;;12.95;;
19889;SDS011;10107;51.198;6.824;2023-10-08T22:33:28;17.20;;;12.13;;
19889;SDS011;10107;51.198;6.824;2023-10-08T22:37:35;20.25;;;12.13;;
19889;SDS011;10107;51.198;6.824;2023-10-08T22:42:00;20.58;;;12.38;;
19889;SDS011;10107;51.198;6.824;2023-10-08T22:46:03;19.08;;;11.82;;
19889;SDS011;10107;51.198;6.824;2023-10-08T22:50:08;20.25;;;12.57;;
19889;SDS011;10107;51.198;6.824;2023-10-08T22:54:31;18.95;;;11.75;;
19889;SDS011;10107;51.198;6.824;2023-10-08T22:58:33;14.63;;;8.40;;
19889;SDS011;10107;51.198;6.824;2023-10-08T23:02:35;17.77;;;12.35;;
19889;SDS011;10107;51.198;6.824;2023-10-08T23:06:38;14.68;;;8.30;;
19889;SDS011;10107;51.198;6.824;2023-10-08T23:10:42;17.83;;;12.30;;
19889;SDS011;10107;51.198;6.824;2023-10-08T23:18:48;18.35;;;11.45;;
19889;SDS011;10107;51.198;6.824;2023-10-08T23:22:51;21.20;;;12.18;;
19889;SDS011;10107;51.198;6.824;2023-10-08T23:26:55;22.57;;;12.70;;
19889;SDS011;10107;51.198;6.824;2023-10-08T23:30:59;14.87;;;9.03;;
19889;SDS011;10107;51.198;6.824;2023-10-08T23:35:02;20.58;;;12.13;;
19889;SDS011;10107;51.198;6.824;2023-10-08T23:39:09;20.38;;;12.10;;
19889;SDS011;10107;51.198;6.824;2023-10-08T23:43:19;21.02;;;13.00;;
19889;SDS011;10107;51.198;6.824;2023-10-08T23:47:20;20.13;;;13.00;;
19889;SDS011;10107;51.198;6.824;2023-10-08T23:51:26;22.77;;;13.38;;
19889;SDS011;10107;51.198;6.824;2023-10-08T23:55:32;19.55;;;12.95;;
19889;SDS011;10107;51.198;6.824;2023-10-08T23:59:38;23.92;;;13.98;;
